createdAt,value
2018-07-20T00:01:13.170Z,18.00
2018-07-20T00:03:41.536Z,18.00
2018-07-20T00:06:09.874Z,18.00
2018-07-20T00:08:38.257Z,18.00
2018-07-20T00:11:06.784Z,17.90
2018-07-20T00:13:35.196Z,17.90
2018-07-20T00:16:03.538Z,18.00
2018-07-20T00:18:31.922Z,17.90
2018-07-20T00:21:00.262Z,17.90
2018-07-20T00:25:56.686Z,17.80
2018-07-20T00:28:25.054Z,17.90
2018-07-20T00:30:53.362Z,18.00
2018-07-20T00:33:21.698Z,17.90
2018-07-20T00:35:50.120Z,17.90
2018-07-20T00:38:18.556Z,17.80
2018-07-20T00:40:46.974Z,17.80
2018-07-20T00:45:43.342Z,17.80
2018-07-20T00:48:11.868Z,17.70
2018-07-20T00:50:40.254Z,17.70
2018-07-20T00:53:08.828Z,17.70
2018-07-20T00:55:37.148Z,17.80
2018-07-20T00:58:05.526Z,17.70
2018-07-20T01:03:01.908Z,17.60
2018-07-20T01:05:30.331Z,17.60
2018-07-20T01:07:58.708Z,17.60
2018-07-20T01:10:27.182Z,17.40
2018-07-20T01:12:55.565Z,17.40
2018-07-20T01:15:23.984Z,17.40
2018-07-20T01:17:52.362Z,17.40
2018-07-20T01:22:48.916Z,17.20
2018-07-20T01:25:17.276Z,17.20
2018-07-20T01:27:45.661Z,17.10
2018-07-20T01:30:14.018Z,17.10
2018-07-20T01:32:42.376Z,17.10
2018-07-20T01:35:10.829Z,17.10
2018-07-20T01:37:39.221Z,17.10
2018-07-20T01:40:07.579Z,17.00
2018-07-20T01:42:35.953Z,17.00
2018-07-20T01:45:04.384Z,17.00
2018-07-20T01:47:32.692Z,16.90
2018-07-20T01:52:29.241Z,16.80
2018-07-20T01:57:25.805Z,16.70
2018-07-20T01:59:54.154Z,16.70
2018-07-20T02:02:22.533Z,16.70
2018-07-20T02:07:18.945Z,16.70
2018-07-20T02:09:47.315Z,16.70
2018-07-20T02:12:15.716Z,16.70
2018-07-20T02:14:44.100Z,16.70
2018-07-20T02:17:12.426Z,16.60
2018-07-20T02:19:40.940Z,16.50
2018-07-20T02:22:09.289Z,16.50
2018-07-20T02:24:37.699Z,16.50
2018-07-20T02:27:06.004Z,16.50
2018-07-20T02:29:34.393Z,16.60
2018-07-20T02:32:02.818Z,16.50
2018-07-20T02:34:31.492Z,16.50
2018-07-20T02:36:59.835Z,16.50
2018-07-20T02:41:56.337Z,16.50
2018-07-20T02:44:24.698Z,16.50
2018-07-20T02:46:53.050Z,16.50
2018-07-20T02:49:21.390Z,16.40
2018-07-20T02:51:49.753Z,16.30
2018-07-20T02:54:18.056Z,16.50
2018-07-20T02:56:46.451Z,16.50
2018-07-20T03:01:42.833Z,16.40
2018-07-20T03:04:11.256Z,16.40
2018-07-20T03:06:39.591Z,16.40
2018-07-20T03:09:10.660Z,16.30
2018-07-20T03:11:39.013Z,16.40
2018-07-20T03:14:07.431Z,16.40
2018-07-20T03:16:35.756Z,16.40
2018-07-20T03:19:04.100Z,16.30
2018-07-20T03:21:32.479Z,16.30
2018-07-20T03:26:28.932Z,16.30
2018-07-20T03:28:57.309Z,16.30
2018-07-20T03:31:25.692Z,16.30
2018-07-20T03:33:54.114Z,16.40
2018-07-20T03:36:22.526Z,16.40
2018-07-20T03:38:50.848Z,16.40
2018-07-20T03:41:19.308Z,16.40
2018-07-20T03:46:15.873Z,16.40
2018-07-20T03:53:40.431Z,16.30
2018-07-20T03:56:08.754Z,16.20
2018-07-20T04:01:05.189Z,16.40
2018-07-20T04:03:33.525Z,16.40
2018-07-20T04:06:01.905Z,16.30
2018-07-20T04:08:30.246Z,16.20
2018-07-20T04:10:58.586Z,16.20
2018-07-20T04:13:26.994Z,16.20
2018-07-20T04:15:55.436Z,16.20
2018-07-20T04:18:23.715Z,16.20
2018-07-20T04:20:52.097Z,16.20
2018-07-20T04:23:20.433Z,16.30
2018-07-20T04:25:48.789Z,16.30
2018-07-20T04:28:17.209Z,16.30
2018-07-20T04:30:45.585Z,16.30
2018-07-20T04:33:14.295Z,16.20
2018-07-20T04:35:42.786Z,16.20
2018-07-20T04:38:11.542Z,16.20
2018-07-20T04:40:39.933Z,16.20
2018-07-20T04:43:08.264Z,16.10
2018-07-20T04:45:36.578Z,16.10
2018-07-20T04:48:05.123Z,16.00
2018-07-20T04:50:33.559Z,16.10
2018-07-20T04:53:01.862Z,16.20
2018-07-20T04:55:30.287Z,16.20
2018-07-20T04:57:58.598Z,16.10
2018-07-20T05:00:26.912Z,16.10
2018-07-20T05:02:55.294Z,16.20
2018-07-20T05:05:23.715Z,16.20
2018-07-20T05:07:52.086Z,16.20
2018-07-20T05:17:06.463Z,16.30
2018-07-20T05:19:34.833Z,16.30
2018-07-20T05:22:03.305Z,16.30
2018-07-20T05:24:31.624Z,16.30
2018-07-20T05:26:59.950Z,16.40
2018-07-20T05:29:28.333Z,16.40
2018-07-20T05:34:24.845Z,16.40
2018-07-20T05:36:53.332Z,16.40
2018-07-20T05:39:21.774Z,16.40
2018-07-20T05:41:50.126Z,16.40
2018-07-20T05:46:46.571Z,16.60
2018-07-20T05:49:14.924Z,16.50
2018-07-20T05:51:43.226Z,16.50
2018-07-20T05:56:39.659Z,16.60
2018-07-20T05:59:08.065Z,16.50
2018-07-20T06:01:36.403Z,16.50
2018-07-20T06:04:04.888Z,16.50
2018-07-20T06:06:33.237Z,16.60
2018-07-20T06:09:01.613Z,16.70
2018-07-20T06:11:30.085Z,16.70
2018-07-20T06:13:58.409Z,16.80
2018-07-20T06:16:26.782Z,16.80
2018-07-20T06:18:55.150Z,16.90
2018-07-20T06:21:23.534Z,16.90
2018-07-20T06:26:20.036Z,17.10
2018-07-20T06:28:48.425Z,17.10
2018-07-20T06:31:16.775Z,17.20
2018-07-20T06:33:45.131Z,17.20
2018-07-20T06:38:41.464Z,17.30
2018-07-20T06:43:38.056Z,17.40
2018-07-20T06:46:06.547Z,17.40
2018-07-20T06:48:34.865Z,17.50
2018-07-20T06:51:03.201Z,17.60
2018-07-20T06:53:31.681Z,17.60
2018-07-20T06:56:00.042Z,17.70
2018-07-20T06:58:28.486Z,17.80
2018-07-20T07:00:56.811Z,17.80
2018-07-20T07:03:25.158Z,17.90
2018-07-20T07:08:21.725Z,18.00
2018-07-20T07:10:50.137Z,18.00
2018-07-20T07:13:18.479Z,18.10
2018-07-20T07:15:47.105Z,18.10
2018-07-20T07:18:15.451Z,18.20
2018-07-20T07:20:43.813Z,18.20
2018-07-20T07:25:40.361Z,18.30
2018-07-20T07:28:08.677Z,18.40
2018-07-20T07:30:37.267Z,18.40
2018-07-20T07:33:05.637Z,18.50
2018-07-20T07:35:33.994Z,18.60
2018-07-20T07:38:02.367Z,18.60
2018-07-20T07:42:58.909Z,18.70
2018-07-20T07:47:55.429Z,18.80
2018-07-20T07:50:23.743Z,18.80
2018-07-20T07:55:20.121Z,18.90
2018-07-20T07:57:48.468Z,19.00
2018-07-20T08:00:16.829Z,19.10
2018-07-20T08:05:13.373Z,19.20
2018-07-20T08:07:41.782Z,19.40
2018-07-20T08:10:10.171Z,19.40
2018-07-20T08:15:07.087Z,19.50
2018-07-20T08:17:35.667Z,19.60
2018-07-20T08:20:04.164Z,19.70
2018-07-20T08:22:32.581Z,19.80
2018-07-20T08:25:00.925Z,19.90
2018-07-20T08:27:29.375Z,20.00
2018-07-20T08:29:57.715Z,20.10
2018-07-20T08:32:26.096Z,20.20
2018-07-20T08:34:54.451Z,20.30
2018-07-20T08:37:22.815Z,20.40
2018-07-20T08:42:19.433Z,20.40
2018-07-20T08:44:47.741Z,20.50
2018-07-20T08:47:16.255Z,20.60
2018-07-20T08:49:44.756Z,20.70
2018-07-20T08:52:13.111Z,20.70
2018-07-20T08:54:41.487Z,20.70
2018-07-20T08:57:10.281Z,20.70
2018-07-20T08:59:38.919Z,20.80
2018-07-20T09:02:07.582Z,20.80
2018-07-20T09:04:35.931Z,20.80
2018-07-20T09:07:04.338Z,21.00
2018-07-20T09:09:32.680Z,20.90
2018-07-20T09:12:01.036Z,21.10
2018-07-20T09:14:29.429Z,21.20
2018-07-20T09:16:57.801Z,21.30
2018-07-20T09:19:26.215Z,21.30
2018-07-20T09:21:54.548Z,21.30
2018-07-20T09:24:22.943Z,21.50
2018-07-20T09:26:51.315Z,21.50
2018-07-20T09:29:19.713Z,21.60
2018-07-20T09:31:48.059Z,21.60
2018-07-20T09:34:16.383Z,21.70
2018-07-20T09:36:44.736Z,21.80
2018-07-20T09:39:13.156Z,21.80
2018-07-20T09:41:41.515Z,22.00
2018-07-20T09:44:09.881Z,22.00
2018-07-20T09:46:38.296Z,22.10
2018-07-20T09:49:06.638Z,22.20
2018-07-20T09:51:35.032Z,22.30
2018-07-20T09:54:03.475Z,22.30
2018-07-20T09:58:59.904Z,22.40
2018-07-20T10:01:29.079Z,22.50
2018-07-20T10:03:57.443Z,22.50
2018-07-20T10:06:25.829Z,22.60
2018-07-20T10:08:54.167Z,22.70
2018-07-20T10:11:22.508Z,22.70
2018-07-20T10:13:50.867Z,22.80
2018-07-20T10:16:19.207Z,22.90
2018-07-20T10:18:47.569Z,22.90
2018-07-20T10:21:15.998Z,23.00
2018-07-20T10:23:44.307Z,22.90
2018-07-20T10:26:12.711Z,23.00
2018-07-20T10:28:41.141Z,23.10
2018-07-20T10:31:09.489Z,23.20
2018-07-20T10:33:37.805Z,23.20
2018-07-20T10:36:06.218Z,23.30
2018-07-20T10:43:30.723Z,23.60
2018-07-20T10:45:59.101Z,23.70
2018-07-20T10:50:55.609Z,23.90
2018-07-20T10:53:23.965Z,24.00
2018-07-20T10:55:52.321Z,24.00
2018-07-20T10:58:20.717Z,24.10
2018-07-20T11:00:49.119Z,24.10
2018-07-20T11:03:17.485Z,24.20
2018-07-20T11:05:45.823Z,24.30
2018-07-20T11:08:14.295Z,24.40
2018-07-20T11:10:42.752Z,24.50
2018-07-20T11:13:11.266Z,24.50
2018-07-20T11:15:39.630Z,24.70
2018-07-20T11:18:08.019Z,24.70
2018-07-20T11:20:36.389Z,24.60
2018-07-20T11:25:32.952Z,24.90
2018-07-20T11:30:29.737Z,25.00
2018-07-20T11:32:58.080Z,25.10
2018-07-20T11:35:26.446Z,25.20
2018-07-20T11:37:54.815Z,25.30
2018-07-20T11:40:23.173Z,25.50
2018-07-20T11:42:51.537Z,25.50
2018-07-20T11:45:19.877Z,25.60
2018-07-20T11:47:48.222Z,25.70
2018-07-20T11:50:16.579Z,25.70
2018-07-20T11:52:44.893Z,25.70
2018-07-20T11:55:13.416Z,25.80
2018-07-20T11:57:41.736Z,25.90
2018-07-20T12:00:10.183Z,26.00
2018-07-20T12:02:38.633Z,26.30
2018-07-20T12:05:07.148Z,26.30
2018-07-20T12:07:35.474Z,26.40
2018-07-20T12:10:03.839Z,26.50
2018-07-20T12:12:32.211Z,26.50
2018-07-20T12:15:00.567Z,26.50
2018-07-20T12:17:28.813Z,26.70
2018-07-20T12:19:57.052Z,26.60
2018-07-20T12:22:25.313Z,26.70
2018-07-20T12:24:53.638Z,26.80
2018-07-20T12:27:21.886Z,27.00
2018-07-20T12:32:18.222Z,27.30
2018-07-20T12:34:46.519Z,27.30
2018-07-20T12:39:42.998Z,27.40
2018-07-20T12:42:11.275Z,27.60
2018-07-20T12:44:39.638Z,27.80
2018-07-20T12:47:07.996Z,27.80
2018-07-20T12:49:36.306Z,27.80
2018-07-20T12:52:04.580Z,27.80
2018-07-20T12:54:32.877Z,27.80
2018-07-20T12:57:01.332Z,27.90
2018-07-20T12:59:29.637Z,28.10
2018-07-20T13:01:58.035Z,28.30
2018-07-20T13:04:26.346Z,28.60
2018-07-20T13:06:54.673Z,28.60
2018-07-20T13:09:22.943Z,28.50
2018-07-20T13:11:51.303Z,28.60
2018-07-20T13:14:19.577Z,28.80
2018-07-20T13:16:47.950Z,28.70
2018-07-20T13:19:16.310Z,28.80
2018-07-20T13:24:12.759Z,29.60
2018-07-20T13:26:41.073Z,29.60
2018-07-20T13:29:09.350Z,29.50
2018-07-20T13:31:37.605Z,29.50
2018-07-20T13:34:06.139Z,29.50
2018-07-20T13:36:34.463Z,29.50
2018-07-20T13:39:02.791Z,29.60
2018-07-20T13:41:31.066Z,29.70
2018-07-20T13:43:59.380Z,30.10
2018-07-20T13:46:27.828Z,30.00
2018-07-20T13:48:56.104Z,29.90
2018-07-20T13:51:24.410Z,30.00
2018-07-20T13:53:52.710Z,30.30
2018-07-20T13:56:20.990Z,30.80
2018-07-20T13:58:49.278Z,31.30
2018-07-20T14:01:18.132Z,31.20
2018-07-20T14:03:46.477Z,31.50
2018-07-20T14:06:21.128Z,31.80
2018-07-20T14:08:49.651Z,32.10
2018-07-20T14:11:17.923Z,32.20
2018-07-20T14:13:46.236Z,32.20
2018-07-20T14:16:14.489Z,32.60
2018-07-20T14:18:42.781Z,33.00
2018-07-20T14:21:11.112Z,33.20
2018-07-20T14:23:39.449Z,33.30
2018-07-20T14:26:07.875Z,33.40
2018-07-20T14:28:36.152Z,33.50
2018-07-20T14:31:04.430Z,33.60
2018-07-20T14:33:32.783Z,33.70
2018-07-20T14:36:01.096Z,33.70
2018-07-20T14:38:29.392Z,33.70
2018-07-20T14:40:57.731Z,33.80
2018-07-20T14:43:26.091Z,33.90
2018-07-20T14:48:22.413Z,34.00
2018-07-20T14:50:50.687Z,34.10
2018-07-20T14:53:19.251Z,34.00
2018-07-20T14:55:47.551Z,33.90
2018-07-20T14:58:16.003Z,33.90
2018-07-20T15:00:44.315Z,34.30
2018-07-20T15:03:12.603Z,34.50
2018-07-20T15:05:40.899Z,34.50
2018-07-20T15:08:09.302Z,34.20
2018-07-20T15:10:37.711Z,33.90
2018-07-20T15:13:05.994Z,33.70
2018-07-20T15:15:34.327Z,33.70
2018-07-20T15:18:02.628Z,33.30
2018-07-20T15:20:30.939Z,32.90
2018-07-20T15:22:59.416Z,32.80
2018-07-20T15:27:55.754Z,32.90
2018-07-20T15:30:24.263Z,32.90
2018-07-20T15:32:52.723Z,33.10
2018-07-20T15:35:20.996Z,32.90
2018-07-20T15:37:49.648Z,32.70
2018-07-20T15:40:17.950Z,32.70
2018-07-20T15:45:14.314Z,32.30
2018-07-20T15:50:10.631Z,32.40
2018-07-20T15:55:07.275Z,32.30
2018-07-20T15:57:35.584Z,32.20
2018-07-20T16:00:04.142Z,32.40
2018-07-20T16:02:32.442Z,32.40
2018-07-20T16:05:00.750Z,32.30
2018-07-20T16:07:29.028Z,32.20
2018-07-20T16:09:57.597Z,31.90
2018-07-20T16:12:25.874Z,31.50
2018-07-20T16:14:54.158Z,31.20
2018-07-20T16:17:22.411Z,31.10
2018-07-20T16:19:50.722Z,30.90
2018-07-20T16:22:18.981Z,30.80
2018-07-20T16:24:47.417Z,30.60
2018-07-20T16:27:15.876Z,30.60
2018-07-20T16:29:44.327Z,30.50
2018-07-20T16:32:12.657Z,30.30
2018-07-20T16:34:40.941Z,30.40
2018-07-20T16:37:09.397Z,30.30
2018-07-20T16:39:37.720Z,30.20
2018-07-20T16:42:06.027Z,30.20
2018-07-20T16:44:34.306Z,30.20
2018-07-20T16:47:02.613Z,30.40
2018-07-20T16:49:30.980Z,30.30
2018-07-20T16:51:59.276Z,30.30
2018-07-20T16:54:27.601Z,30.40
2018-07-20T16:56:55.989Z,30.20
2018-07-20T16:59:24.275Z,30.20
2018-07-20T17:01:52.599Z,30.10
2018-07-20T17:04:20.872Z,29.90
2018-07-20T17:06:49.293Z,29.70
2018-07-20T17:09:17.559Z,29.30
2018-07-20T17:11:45.792Z,29.10
2018-07-20T17:14:14.092Z,28.90
2018-07-20T17:16:42.359Z,28.70
2018-07-20T17:19:10.647Z,28.30
2018-07-20T17:21:38.917Z,28.20
2018-07-20T17:24:07.200Z,28.00
2018-07-20T17:26:35.666Z,27.70
2018-07-20T17:29:03.942Z,27.70
2018-07-20T17:31:32.215Z,27.70
2018-07-20T17:34:00.481Z,27.60
2018-07-20T17:38:56.809Z,27.50
2018-07-20T17:41:25.135Z,27.50
2018-07-20T17:43:53.401Z,27.60
2018-07-20T17:46:21.663Z,27.40
2018-07-20T17:48:49.949Z,27.20
2018-07-20T17:51:18.416Z,27.10
2018-07-20T17:56:15.200Z,27.10
2018-07-20T17:58:43.461Z,26.90
2018-07-20T18:03:39.944Z,26.70
2018-07-20T18:06:08.296Z,26.70
2018-07-20T18:08:36.579Z,26.70
2018-07-20T18:11:04.876Z,26.70
2018-07-20T18:13:33.198Z,26.70
2018-07-20T18:16:01.576Z,26.60
2018-07-20T18:18:29.915Z,26.60
2018-07-20T18:20:58.198Z,26.40
2018-07-20T18:23:26.461Z,26.30
2018-07-20T18:25:54.829Z,26.30
2018-07-20T18:28:23.107Z,26.30
2018-07-20T18:30:52.067Z,26.20
2018-07-20T18:33:20.355Z,26.20
2018-07-20T18:35:48.617Z,26.00
2018-07-20T18:40:44.976Z,25.70
2018-07-20T18:43:13.261Z,25.60
2018-07-20T18:45:41.544Z,25.50
2018-07-20T18:48:10.486Z,25.40
2018-07-20T18:50:38.803Z,25.40
2018-07-20T18:53:07.256Z,25.30
2018-07-20T18:55:35.535Z,25.30
2018-07-20T18:58:03.856Z,25.10
2018-07-20T19:00:32.402Z,25.00
2018-07-20T19:03:00.686Z,24.90
2018-07-20T19:05:28.987Z,25.00
2018-07-20T19:07:57.287Z,24.90
2018-07-20T19:10:25.708Z,24.80
2018-07-20T19:12:54.264Z,24.70
2018-07-20T19:15:22.584Z,24.70
2018-07-20T19:17:50.906Z,24.60
2018-07-20T19:20:19.194Z,24.40
2018-07-20T19:22:47.585Z,24.40
2018-07-20T19:25:15.894Z,24.20
2018-07-20T19:27:44.149Z,24.20
2018-07-20T19:30:12.824Z,24.10
2018-07-20T19:32:41.191Z,24.00
2018-07-20T19:35:09.465Z,24.00
2018-07-20T19:37:37.812Z,23.80
2018-07-20T19:40:06.092Z,23.80
2018-07-20T19:42:34.396Z,23.70
2018-07-20T19:45:02.727Z,23.70
2018-07-20T19:47:31.216Z,23.60
2018-07-20T19:49:59.638Z,23.60
2018-07-20T19:52:27.942Z,23.40
2018-07-20T19:54:56.210Z,23.30
2018-07-20T19:57:24.558Z,23.10
2018-07-20T19:59:52.878Z,23.10
2018-07-20T20:02:21.191Z,23.20
2018-07-20T20:04:49.452Z,23.00
2018-07-20T20:07:17.824Z,23.00
2018-07-20T20:09:46.268Z,22.90
2018-07-20T20:12:15.072Z,22.90
2018-07-20T20:14:43.356Z,22.80
2018-07-20T20:17:11.832Z,22.80
2018-07-20T20:19:40.139Z,22.70
2018-07-20T20:22:08.408Z,22.60
2018-07-20T20:24:36.700Z,22.40
2018-07-20T20:27:05.257Z,22.40
2018-07-20T20:29:33.524Z,22.30
2018-07-20T20:32:01.861Z,22.30
2018-07-20T20:34:30.134Z,22.40
2018-07-20T20:36:58.418Z,22.40
2018-07-20T20:39:26.721Z,22.30
2018-07-20T20:41:55.045Z,22.30
2018-07-20T20:44:23.381Z,22.20
2018-07-20T20:46:51.771Z,22.20
2018-07-20T20:49:20.116Z,22.20
2018-07-20T20:51:48.430Z,22.10
2018-07-20T20:54:16.698Z,22.10
2018-07-20T20:56:44.991Z,22.00
2018-07-20T20:59:13.520Z,22.00
2018-07-20T21:01:41.863Z,21.90
2018-07-20T21:04:10.356Z,21.90
2018-07-20T21:06:38.709Z,21.90
2018-07-20T21:09:08.159Z,21.80
2018-07-20T21:11:36.980Z,21.70
2018-07-20T21:14:05.706Z,21.70
2018-07-20T21:16:34.036Z,21.70
2018-07-20T21:19:02.736Z,21.70
2018-07-20T21:21:31.570Z,21.70
2018-07-20T21:24:00.067Z,21.60
2018-07-20T21:26:28.652Z,21.70
2018-07-20T21:28:57.261Z,21.70
2018-07-20T21:31:26.492Z,21.60
2018-07-20T21:33:55.260Z,21.50
2018-07-20T21:36:24.036Z,21.40
2018-07-20T21:38:52.883Z,21.30
2018-07-20T21:41:21.508Z,21.30
2018-07-20T21:43:50.088Z,21.40
2018-07-20T21:46:18.896Z,21.30
2018-07-20T21:48:47.516Z,21.30
2018-07-20T21:51:15.921Z,21.30
2018-07-20T21:53:44.204Z,21.20
2018-07-20T21:56:12.488Z,21.30
2018-07-20T21:58:40.886Z,21.20
2018-07-20T22:01:09.237Z,21.20
2018-07-20T22:03:37.599Z,21.10
2018-07-20T22:06:05.877Z,21.00
2018-07-20T22:08:34.179Z,21.00
2018-07-20T22:11:02.459Z,20.90
2018-07-20T22:13:30.739Z,21.00
2018-07-20T22:15:59.081Z,21.10
2018-07-20T22:18:27.356Z,20.90
2018-07-20T22:20:55.698Z,20.80
2018-07-20T22:23:23.981Z,20.90
2018-07-20T22:25:52.482Z,20.90
2018-07-20T22:28:20.740Z,20.80
2018-07-20T22:30:49.010Z,20.70
2018-07-20T22:33:17.344Z,20.70
2018-07-20T22:35:45.642Z,20.70
2018-07-20T22:38:13.901Z,20.70
2018-07-20T22:40:42.187Z,20.60
2018-07-20T22:43:10.492Z,20.60
2018-07-20T22:45:38.940Z,20.60
2018-07-20T22:48:07.287Z,20.60
2018-07-20T22:53:03.636Z,20.40
2018-07-20T22:55:32.138Z,20.40
2018-07-20T22:58:00.464Z,20.30
2018-07-20T23:00:28.924Z,20.20
2018-07-20T23:02:57.218Z,20.20
2018-07-20T23:05:25.631Z,20.20
2018-07-20T23:07:53.965Z,20.00
2018-07-20T23:10:22.414Z,19.90
2018-07-20T23:12:50.798Z,20.00
2018-07-20T23:15:19.102Z,19.90
2018-07-20T23:17:47.360Z,19.90
2018-07-20T23:20:15.736Z,19.90
2018-07-20T23:22:44.386Z,20.00
2018-07-20T23:27:40.701Z,19.90
2018-07-20T23:30:08.995Z,19.90
2018-07-20T23:32:37.252Z,19.80
2018-07-20T23:35:05.564Z,19.80
2018-07-20T23:37:33.838Z,19.90
2018-07-20T23:40:02.308Z,19.70
2018-07-20T23:42:30.619Z,19.70
2018-07-20T23:44:58.904Z,19.60
2018-07-20T23:47:27.171Z,19.60
2018-07-20T23:49:55.411Z,19.50
2018-07-20T23:52:23.717Z,19.50
2018-07-20T23:54:52.168Z,19.40
2018-07-20T23:57:20.533Z,19.50
2018-07-20T23:59:48.830Z,19.50
